Time,TemperatureF,DewpointF,PressureIn,WindDirection,WindDirectionDegrees,WindSpeedMPH,WindSpeedGustMPH,Humidity,HourlyPrecipIn,Conditions,Clouds,dailyrainin,SolarRadiationWatts/m^2,SoftwareType,DateUTC
2013-07-03 00:00:00,62.0,57.0,-100.00,ESE,112,1.0,-999.0,84,-99.99,,,-99.99,0.000000,,2013-07-03 04:00:00,
2013-07-03 00:43:00,62.0,57.0,-100.00,ESE,112,1.0,-999.0,84,-99.99,,,-99.99,0.000000,,2013-07-03 04:43:00,
2013-07-03 00:52:00,62.0,57.0,-100.00,ESE,112,1.0,-999.0,84,-99.99,,,-99.99,0.000000,,2013-07-03 04:52:00,
2013-07-03 01:00:00,60.0,57.0,-100.00,West,270,0.0,-999.0,88,-99.99,,,-99.99,0.000000,,2013-07-03 05:00:00,
2013-07-03 01:48:00,60.0,57.0,-100.00,West,270,0.0,-999.0,88,-99.99,,,-99.99,0.000000,,2013-07-03 05:48:00,
2013-07-03 02:00:00,59.0,56.0,-100.00,SSW,202,0.0,-999.0,90,-99.99,,,-99.99,0.000000,,2013-07-03 06:00:00,
2013-07-03 02:50:00,59.0,56.0,-100.00,SSW,202,0.0,-999.0,90,-99.99,,,-99.99,0.000000,,2013-07-03 06:50:00,
2013-07-03 02:58:00,59.0,56.0,-100.00,SSW,202,0.0,-999.0,90,-99.99,,,-99.99,0.000000,,2013-07-03 06:58:00,
2013-07-03 03:00:00,58.0,55.0,-100.00,NE,45,0.0,-999.0,91,-99.99,,,-99.99,0.000000,,2013-07-03 07:00:00,
2013-07-03 03:48:00,58.0,55.0,-100.00,NE,45,0.0,-999.0,91,-99.99,,,-99.99,0.000000,,2013-07-03 07:48:00,
2013-07-03 04:00:00,58.0,56.0,-100.00,East,90,0.0,-999.0,92,-99.99,,,-99.99,1.160000,,2013-07-03 08:00:00,
2013-07-03 04:47:00,58.0,56.0,-100.00,East,90,0.0,-999.0,92,-99.99,,,-99.99,1.160000,,2013-07-03 08:47:00,
2013-07-03 05:00:00,58.0,56.0,-100.00,SW,225,0.0,-999.0,93,-99.99,,,-99.99,0.000000,,2013-07-03 09:00:00,
2013-07-03 05:48:00,58.0,56.0,-100.00,SW,225,0.0,-999.0,93,-99.99,,,-99.99,0.000000,,2013-07-03 09:48:00,
2013-07-03 06:47:00,58.0,56.0,-100.00,ESE,112,0.0,-999.0,92,-99.99,,,-99.99,1.160000,,2013-07-03 10:47:00,
2013-07-03 06:56:00,58.0,56.0,-100.00,ESE,112,0.0,-999.0,92,-99.99,,,-99.99,1.160000,,2013-07-03 10:56:00,
2013-07-03 07:00:00,59.0,57.0,-100.00,SSW,202,0.0,-999.0,93,-99.99,,,-99.99,17.400000,,2013-07-03 11:00:00,
2013-07-03 07:46:00,59.0,57.0,-100.00,SSW,202,0.0,-999.0,93,-99.99,,,-99.99,17.400000,,2013-07-03 11:46:00,
2013-07-03 07:59:00,59.0,57.0,-100.00,SSW,202,0.0,-999.0,93,-99.99,,,-99.99,17.400000,,2013-07-03 11:59:00,
2013-07-03 08:00:00,62.0,59.0,-100.00,ESE,112,0.0,-999.0,90,-99.99,,,-99.99,98.599998,,2013-07-03 12:00:00,
2013-07-03 08:47:00,62.0,59.0,-100.00,ESE,112,0.0,-999.0,90,-99.99,,,-99.99,98.599998,,2013-07-03 12:47:00,
2013-07-03 08:58:00,62.0,59.0,-100.00,ESE,112,0.0,-999.0,90,-99.99,,,-99.99,98.599998,,2013-07-03 12:58:00,
2013-07-03 09:00:00,66.0,61.0,-100.00,ESE,112,0.0,-999.0,84,-99.99,,,-99.99,163.559998,,2013-07-03 13:00:00,
2013-07-03 09:55:00,66.0,61.0,-100.00,ESE,112,0.0,-999.0,84,-99.99,,,-99.99,163.559998,,2013-07-03 13:55:00,
2013-07-03 10:00:00,68.0,62.0,-100.00,ESE,112,1.0,-999.0,82,-99.99,,,-99.99,272.600006,,2013-07-03 14:00:00,
2013-07-03 10:48:00,68.0,62.0,-100.00,ESE,112,1.0,-999.0,82,-99.99,,,-99.99,272.600006,,2013-07-03 14:48:00,
2013-07-03 10:55:00,68.0,62.0,-100.00,ESE,112,1.0,-999.0,82,-99.99,,,-99.99,272.600006,,2013-07-03 14:55:00,
2013-07-03 11:00:00,71.0,64.0,-100.00,South,180,1.0,-999.0,77,-99.99,,,-99.99,451.239990,,2013-07-03 15:00:00,
2013-07-03 11:57:00,71.0,64.0,-100.00,South,180,1.0,-999.0,77,-99.99,,,-99.99,451.239990,,2013-07-03 15:57:00,
2013-07-03 12:00:00,74.0,65.0,-100.00,South,180,2.0,-999.0,73,-99.99,,,-99.99,469.799988,,2013-07-03 16:00:00,
2013-07-03 12:47:00,74.0,65.0,-100.00,South,180,2.0,-999.0,73,-99.99,,,-99.99,469.799988,,2013-07-03 16:47:00,
2013-07-03 13:00:00,76.0,64.0,-100.00,SSW,202,3.0,-999.0,66,-99.99,,,-99.99,741.239990,,2013-07-03 17:00:00,
2013-07-03 13:50:00,76.0,64.0,-100.00,SSW,202,3.0,-999.0,66,-99.99,,,-99.99,741.239990,,2013-07-03 17:50:00,
2013-07-03 13:56:00,76.0,64.0,-100.00,SSW,202,3.0,-999.0,66,-99.99,,,-99.99,741.239990,,2013-07-03 17:56:00,
2013-07-03 14:00:00,77.0,62.0,-100.00,SSW,202,3.0,-999.0,59,-99.99,,,-99.99,661.200012,,2013-07-03 18:00:00,
2013-07-03 14:47:00,77.0,62.0,-100.00,SSW,202,3.0,-999.0,59,-99.99,,,-99.99,661.200012,,2013-07-03 18:47:00,
2013-07-03 14:59:00,77.0,62.0,-100.00,SSW,202,3.0,-999.0,59,-99.99,,,-99.99,661.200012,,2013-07-03 18:59:00,
2013-07-03 15:00:00,79.0,61.0,-100.00,SSW,202,3.0,-999.0,54,-99.99,,,-99.99,617.119995,,2013-07-03 19:00:00,
2013-07-03 15:49:00,79.0,61.0,-100.00,SSW,202,3.0,-999.0,54,-99.99,,,-99.99,617.119995,,2013-07-03 19:49:00,
2013-07-03 15:58:00,79.0,61.0,-100.00,SSW,202,3.0,-999.0,54,-99.99,,,-99.99,617.119995,,2013-07-03 19:58:00,
2013-07-03 16:00:00,79.0,61.0,-100.00,SSW,202,3.0,-999.0,54,-99.99,,,-99.99,570.719971,,2013-07-03 20:00:00,
2013-07-03 16:47:00,79.0,61.0,-100.00,SSW,202,3.0,-999.0,54,-99.99,,,-99.99,570.719971,,2013-07-03 20:47:00,
2013-07-03 16:57:00,79.0,61.0,-100.00,SSW,202,3.0,-999.0,54,-99.99,,,-99.99,570.719971,,2013-07-03 20:57:00,
2013-07-03 17:00:00,80.0,61.0,-100.00,SSW,202,4.0,-999.0,52,-99.99,,,-99.99,526.640015,,2013-07-03 21:00:00,
2013-07-03 17:45:00,80.0,61.0,-100.00,SSW,202,4.0,-999.0,52,-99.99,,,-99.99,526.640015,,2013-07-03 21:45:00,
2013-07-03 17:55:00,80.0,61.0,-100.00,SSW,202,4.0,-999.0,52,-99.99,,,-99.99,526.640015,,2013-07-03 21:55:00,
2013-07-03 18:00:00,80.0,60.0,-100.00,SW,225,4.0,-999.0,51,-99.99,,,-99.99,411.799988,,2013-07-03 22:00:00,
2013-07-03 18:47:00,80.0,60.0,-100.00,SW,225,4.0,-999.0,51,-99.99,,,-99.99,411.799988,,2013-07-03 22:47:00,
2013-07-03 18:57:00,80.0,60.0,-100.00,SW,225,4.0,-999.0,51,-99.99,,,-99.99,411.799988,,2013-07-03 22:57:00,
2013-07-03 19:00:00,79.0,61.0,-100.00,SSW,202,1.0,-999.0,54,-99.99,,,-99.99,219.240005,,2013-07-03 23:00:00,
2013-07-03 19:46:00,79.0,61.0,-100.00,SSW,202,1.0,-999.0,54,-99.99,,,-99.99,219.240005,,2013-07-03 23:46:00,
2013-07-03 19:56:00,79.0,61.0,-100.00,SSW,202,1.0,-999.0,54,-99.99,,,-99.99,219.240005,,2013-07-03 23:56:00,
2013-07-03 20:50:00,77.0,62.0,-100.00,South,180,1.0,-999.0,59,-99.99,,,-99.99,99.760002,,2013-07-04 00:50:00,
2013-07-03 20:57:00,77.0,62.0,-100.00,South,180,1.0,-999.0,59,-99.99,,,-99.99,99.760002,,2013-07-04 00:57:00,
2013-07-03 21:00:00,75.0,62.0,-100.00,South,180,1.0,-999.0,64,-99.99,,,-99.99,29.000000,,2013-07-04 01:00:00,
2013-07-03 21:47:00,75.0,62.0,-100.00,South,180,1.0,-999.0,64,-99.99,,,-99.99,29.000000,,2013-07-04 01:47:00,
2013-07-03 21:57:00,75.0,62.0,-100.00,South,180,1.0,-999.0,64,-99.99,,,-99.99,29.000000,,2013-07-04 01:57:00,
2013-07-03 22:00:00,73.0,63.0,-100.00,SE,135,0.0,-999.0,70,-99.99,,,-99.99,2.320000,,2013-07-04 02:00:00,
2013-07-03 22:49:00,73.0,63.0,-100.00,SE,135,0.0,-999.0,70,-99.99,,,-99.99,2.320000,,2013-07-04 02:49:00,
2013-07-03 22:57:00,73.0,63.0,-100.00,SE,135,0.0,-999.0,70,-99.99,,,-99.99,2.320000,,2013-07-04 02:57:00,
2013-07-03 23:00:00,72.0,63.0,-100.00,SSW,202,0.0,-999.0,75,-99.99,,,-99.99,0.000000,,2013-07-04 03:00:00,
2013-07-03 23:46:00,72.0,63.0,-100.00,SSW,202,0.0,-999.0,75,-99.99,,,-99.99,0.000000,,2013-07-04 03:46:00,
2013-07-03 23:57:00,72.0,63.0,-100.00,SSW,202,0.0,-999.0,75,-99.99,,,-99.99,0.000000,,2013-07-04 03:57:00,